Terminal Aerodrome Forecast
Issued by NWS

Home | Current Version | Previous Version | Text Only | Print | Product List | Glossary On
Versions: 1 2 3 4 5 6 7 8 9 10 11 12 13
629
FTUS42 KGSP 100533
TAFGMU
TAF
KGMU 100533Z 1006/1106 25005KT P6SM FEW100
     FM101600 27010G18KT P6SM FEW060 SCT120
     FM102300 26006KT P6SM FEW120=

USA.gov is the U.S. government's official web portal to all federal, state and local government web resources and services.